createdAt,value
2023-03-05T00:01:33.904Z,99226.91
2023-03-05T00:04:10.326Z,99220.19
2023-03-05T00:06:45.220Z,99216.59
2023-03-05T00:09:17.429Z,99214.69
2023-03-05T00:11:49.822Z,99213.97
2023-03-05T00:14:21.794Z,99212.47
2023-03-05T00:16:53.707Z,99206.41
2023-03-05T00:19:25.537Z,99209.97
2023-03-05T00:21:57.846Z,99202.53
2023-03-05T00:24:32.276Z,99203.59
2023-03-05T00:27:04.408Z,99197.94
2023-03-05T00:29:39.224Z,99194.50
2023-03-05T00:32:11.671Z,99198.78
2023-03-05T00:34:44.076Z,99192.28
2023-03-05T00:37:17.841Z,99185.53
2023-03-05T00:39:49.636Z,99188.28
2023-03-05T00:42:21.622Z,99184.72
2023-03-05T00:44:53.478Z,99174.09
2023-03-05T00:47:25.427Z,99177.22
2023-03-05T00:50:00.774Z,99182.00
2023-03-05T00:52:33.398Z,99177.47
2023-03-05T00:55:06.182Z,99179.28
2023-03-05T00:57:38.423Z,99176.66
2023-03-05T01:00:14.072Z,99170.47
2023-03-05T01:02:46.855Z,99170.22
2023-03-05T01:05:19.060Z,99171.16
2023-03-05T01:07:55.597Z,99166.06
2023-03-05T01:10:31.408Z,99169.13
2023-03-05T01:13:03.400Z,99163.88
2023-03-05T01:15:45.096Z,99155.50
2023-03-05T01:18:18.860Z,99150.41
2023-03-05T01:20:51.109Z,99153.28
2023-03-05T01:23:26.495Z,99147.47
2023-03-05T01:25:59.564Z,99146.66
2023-03-05T01:28:35.540Z,99146.41
2023-03-05T01:31:09.557Z,99143.50
2023-03-05T01:33:41.445Z,99142.56
2023-03-05T01:36:16.761Z,99141.59
2023-03-05T01:38:48.976Z,99138.03
2023-03-05T01:41:21.131Z,99132.50
2023-03-05T01:43:55.968Z,99125.06
2023-03-05T01:46:27.672Z,99126.59
2023-03-05T01:49:19.796Z,99120.69
2023-03-05T01:52:18.001Z,99117.56
2023-03-05T01:54:57.877Z,99117.13
2023-03-05T01:57:53.272Z,99109.94
2023-03-05T02:00:46.730Z,99119.66
2023-03-05T02:03:23.206Z,99117.06
2023-03-05T02:05:55.300Z,99113.50
2023-03-05T02:08:28.510Z,99108.28
2023-03-05T02:11:02.173Z,99110.63
2023-03-05T02:13:38.320Z,99108.16
2023-03-05T02:16:10.155Z,99103.44
2023-03-05T02:18:42.033Z,99107.72
2023-03-05T02:21:14.558Z,99113.06
2023-03-05T02:23:47.832Z,99109.75
2023-03-05T02:26:20.709Z,99104.28
2023-03-05T02:28:58.357Z,99106.59
2023-03-05T02:31:31.312Z,99099.47
2023-03-05T02:34:03.576Z,99095.91
2023-03-05T02:36:35.458Z,99093.16
2023-03-05T02:39:09.638Z,99097.00
2023-03-05T02:41:45.186Z,99090.63
2023-03-05T02:44:17.283Z,99093.75
2023-03-05T02:46:49.557Z,99093.41
2023-03-05T02:49:24.464Z,99088.69
2023-03-05T02:51:56.380Z,99089.66
2023-03-05T02:54:28.191Z,99087.28
2023-03-05T02:57:04.606Z,99087.94
2023-03-05T02:59:36.488Z,99087.34
2023-03-05T03:02:08.425Z,99086.81
2023-03-05T03:04:40.281Z,99087.19
2023-03-05T03:07:13.538Z,99086.91
2023-03-05T03:09:46.356Z,99086.41
2023-03-05T03:12:18.141Z,99080.34
2023-03-05T03:14:50.043Z,99087.13
2023-03-05T03:17:24.530Z,99077.88
2023-03-05T03:19:56.364Z,99076.38
2023-03-05T03:22:28.467Z,99075.94
2023-03-05T03:25:01.321Z,99070.81
2023-03-05T03:27:33.216Z,99070.72
2023-03-05T03:30:05.981Z,99068.66
2023-03-05T03:32:38.092Z,99065.22
2023-03-05T03:35:11.324Z,99064.81
2023-03-05T03:37:43.326Z,99062.09
2023-03-05T03:40:15.198Z,99063.75
2023-03-05T03:42:47.068Z,99064.19
2023-03-05T03:45:22.308Z,99062.13
2023-03-05T03:47:57.216Z,99057.38
2023-03-05T03:50:29.170Z,99054.88
2023-03-05T03:53:03.770Z,99059.81
2023-03-05T03:55:35.981Z,99054.59
2023-03-05T03:58:08.142Z,99059.69
2023-03-05T04:00:40.918Z,99057.09
2023-03-05T04:03:12.694Z,99060.94
2023-03-05T04:05:44.478Z,99057.63
2023-03-05T04:08:19.504Z,99059.28
2023-03-05T04:10:52.554Z,99055.44
2023-03-05T04:13:24.323Z,99050.22
2023-03-05T04:16:03.989Z,99049.38
2023-03-05T04:18:37.422Z,99049.38
2023-03-05T04:21:34.561Z,99049.00
2023-03-05T04:24:31.397Z,99054.91
2023-03-05T04:27:05.811Z,99052.44
2023-03-05T04:29:37.832Z,99052.16
2023-03-05T04:32:09.590Z,99058.84
2023-03-05T04:34:46.621Z,99055.06
2023-03-05T04:37:18.391Z,99062.13
2023-03-05T04:42:47.029Z,99057.00
2023-03-05T04:45:19.029Z,99055.63
2023-03-05T04:47:50.981Z,99048.31
2023-03-05T04:50:28.705Z,99052.69
2023-03-05T04:53:03.510Z,99042.84
2023-03-05T04:55:35.321Z,99055.78
2023-03-05T04:58:07.239Z,99047.03
2023-03-05T05:00:41.017Z,99045.75
2023-03-05T05:03:15.824Z,99052.63
2023-03-05T05:05:55.134Z,99054.13
2023-03-05T05:08:27.904Z,99052.03
2023-03-05T05:11:06.106Z,99048.03
2023-03-05T05:13:38.226Z,99052.53
2023-03-05T05:16:11.223Z,99052.78
2023-03-05T05:18:42.972Z,99054.19
2023-03-05T05:21:16.164Z,99061.19
2023-03-05T05:23:51.830Z,99059.78
2023-03-05T05:26:24.454Z,99059.91
2023-03-05T05:28:56.348Z,99058.94
2023-03-05T05:31:28.601Z,99062.16
2023-03-05T05:34:00.404Z,99064.22
2023-03-05T05:36:32.303Z,99063.75
2023-03-05T05:39:05.877Z,99059.38
2023-03-05T05:41:40.998Z,99064.97
2023-03-05T05:44:12.572Z,99062.97
2023-03-05T05:46:44.745Z,99055.72
2023-03-05T05:49:16.648Z,99060.94
2023-03-05T05:51:48.541Z,99057.25
2023-03-05T05:54:20.477Z,99057.38
2023-03-05T05:56:52.405Z,99076.44
2023-03-05T05:59:27.309Z,99062.47
2023-03-05T06:02:00.240Z,99077.16
2023-03-05T06:04:32.158Z,99071.13
2023-03-05T06:07:04.943Z,99076.22
2023-03-05T06:09:36.864Z,99068.97
2023-03-05T06:12:08.684Z,99077.63
2023-03-05T06:14:40.609Z,99072.28
2023-03-05T06:17:16.879Z,99066.69
2023-03-05T06:19:51.093Z,99070.00
2023-03-05T06:22:22.920Z,99067.88
2023-03-05T06:24:54.689Z,99065.03
2023-03-05T06:27:26.677Z,99061.38
2023-03-05T06:29:59.551Z,99060.53
2023-03-05T06:32:31.465Z,99063.84
2023-03-05T06:35:06.483Z,99068.38
2023-03-05T06:37:38.441Z,99060.28
2023-03-05T06:40:12.482Z,99069.38
2023-03-05T06:42:44.784Z,99059.28
2023-03-05T06:45:16.866Z,99063.44
2023-03-05T06:47:50.605Z,99065.53
2023-03-05T06:50:25.426Z,99059.84
2023-03-05T06:52:57.101Z,99065.41
2023-03-05T06:55:29.018Z,99065.41
2023-03-05T06:58:01.214Z,99060.44
2023-03-05T07:00:33.294Z,99063.38
2023-03-05T07:03:05.379Z,99067.50
2023-03-05T07:05:41.501Z,99067.38
2023-03-05T07:08:15.851Z,99060.00
2023-03-05T07:10:47.655Z,99071.03
2023-03-05T07:13:19.495Z,99066.25
2023-03-05T07:15:51.803Z,99061.72
2023-03-05T07:18:23.749Z,99066.00
2023-03-05T07:21:01.444Z,99054.72
2023-03-05T07:23:34.506Z,99056.50
2023-03-05T07:26:09.452Z,99052.81
2023-03-05T07:28:42.218Z,99059.19
2023-03-05T07:31:19.819Z,99048.59
2023-03-05T07:33:51.692Z,99057.41
2023-03-05T07:36:23.968Z,99068.81
2023-03-05T07:38:59.054Z,99067.34
2023-03-05T07:41:34.036Z,99069.47
2023-03-05T07:44:05.971Z,99064.72
2023-03-05T07:46:47.589Z,99071.13
2023-03-05T07:49:19.445Z,99069.63
2023-03-05T07:51:52.231Z,99072.34
2023-03-05T07:54:49.765Z,99061.66
2023-03-05T07:57:23.765Z,99074.25
2023-03-05T07:59:56.118Z,99073.69
2023-03-05T08:02:28.036Z,99063.97
2023-03-05T08:05:00.254Z,99067.25
2023-03-05T08:07:33.088Z,99059.31
2023-03-05T08:10:06.199Z,99056.06
2023-03-05T08:12:41.972Z,99063.50
2023-03-05T08:15:13.778Z,99064.91
2023-03-05T08:17:45.647Z,99058.53
2023-03-05T08:20:19.239Z,99050.31
2023-03-05T08:22:51.258Z,99043.31
2023-03-05T08:25:23.228Z,99035.94
2023-03-05T08:27:55.459Z,99032.81
2023-03-05T08:30:27.762Z,99026.00
2023-03-05T08:33:00.025Z,99029.72
2023-03-05T08:35:34.411Z,99024.72
2023-03-05T08:38:07.209Z,99028.31
2023-03-05T08:40:43.794Z,99020.47
2023-03-05T08:43:17.502Z,99016.97
2023-03-05T08:45:49.709Z,99017.53
2023-03-05T08:48:21.752Z,99017.53
2023-03-05T08:50:57.434Z,99003.00
2023-03-05T08:53:29.462Z,99003.22
2023-03-05T08:56:02.062Z,98997.88
2023-03-05T08:58:34.829Z,99001.03
2023-03-05T09:01:08.974Z,98999.69
2023-03-05T09:03:41.155Z,99006.66
2023-03-05T09:06:16.077Z,98997.84
2023-03-05T09:08:47.893Z,98990.38
2023-03-05T09:11:19.941Z,98986.09
2023-03-05T09:13:52.108Z,98975.34
2023-03-05T09:16:30.175Z,98987.31
2023-03-05T09:19:02.524Z,98978.47
2023-03-05T09:21:34.648Z,98977.53
2023-03-05T09:24:06.901Z,98972.53
2023-03-05T09:26:41.039Z,98964.94
2023-03-05T09:29:13.572Z,98964.84
2023-03-05T09:31:45.447Z,98961.91
2023-03-05T09:34:17.566Z,98962.41
2023-03-05T09:36:50.197Z,98971.56
2023-03-05T09:39:22.143Z,98973.72
2023-03-05T09:42:25.034Z,98960.78
2023-03-05T09:45:24.623Z,98961.13
2023-03-05T09:48:24.214Z,98953.47
2023-03-05T09:51:05.220Z,98953.94
2023-03-05T09:54:06.537Z,98946.31
2023-03-05T09:56:43.277Z,98961.22
2023-03-05T09:59:48.800Z,98950.78
2023-03-05T10:02:29.682Z,98948.66
2023-03-05T10:05:18.043Z,98945.06
2023-03-05T10:07:58.309Z,98950.69
2023-03-05T10:10:47.586Z,98940.13
2023-03-05T10:13:55.056Z,98931.28
2023-03-05T10:16:51.915Z,98926.13
2023-03-05T10:19:35.595Z,98923.31
2023-03-05T10:22:34.748Z,98910.69
2023-03-05T10:25:19.534Z,98914.38
2023-03-05T10:28:06.009Z,98918.16
2023-03-05T10:30:58.282Z,98919.06
2023-03-05T10:33:51.771Z,98918.13
2023-03-05T10:36:46.078Z,98907.59
2023-03-05T10:39:17.886Z,98918.81
2023-03-05T10:42:17.896Z,98906.72
2023-03-05T10:44:56.537Z,98907.69
2023-03-05T10:47:31.487Z,98904.09
2023-03-05T10:50:17.644Z,98897.47
2023-03-05T10:53:14.106Z,98898.78
2023-03-05T10:55:46.081Z,98889.88
2023-03-05T10:58:24.806Z,98883.78
2023-03-05T11:01:12.460Z,98876.03
2023-03-05T11:04:29.346Z,98875.75
2023-03-05T11:07:10.532Z,98875.63
2023-03-05T11:09:44.427Z,98868.41
2023-03-05T11:12:21.915Z,98877.47
2023-03-05T11:15:06.815Z,98861.69
2023-03-05T11:17:44.643Z,98861.50
2023-03-05T11:20:34.546Z,98858.38
2023-03-05T11:23:15.472Z,98852.25
2023-03-05T11:26:01.488Z,98849.78
2023-03-05T11:28:41.051Z,98849.16
2023-03-05T11:31:16.095Z,98847.97
2023-03-05T11:34:08.434Z,98839.59
2023-03-05T11:36:53.284Z,98833.19
2023-03-05T11:39:30.777Z,98830.88
2023-03-05T11:42:16.982Z,98825.97
2023-03-05T11:44:52.763Z,98818.31
2023-03-05T11:47:42.888Z,98813.34
2023-03-05T11:50:27.647Z,98813.16
2023-03-05T11:53:18.905Z,98807.16
2023-03-05T11:56:03.908Z,98804.25
2023-03-05T11:58:45.165Z,98813.16
2023-03-05T12:01:24.852Z,98805.25
2023-03-05T12:04:00.587Z,98813.06
2023-03-05T12:06:49.251Z,98793.59
2023-03-05T12:09:44.443Z,98807.00
2023-03-05T12:12:36.041Z,98795.63
2023-03-05T12:15:39.070Z,98787.31
2023-03-05T12:18:22.919Z,98788.63
2023-03-05T12:21:22.583Z,98784.97
2023-03-05T12:24:01.794Z,98774.97
2023-03-05T12:26:56.425Z,98774.69
2023-03-05T12:29:40.014Z,98777.31
2023-03-05T12:32:33.407Z,98775.53
2023-03-05T12:35:30.269Z,98763.25
2023-03-05T12:38:25.660Z,98760.09
2023-03-05T12:41:37.761Z,98755.41
2023-03-05T12:44:18.750Z,98748.63
2023-03-05T12:47:11.960Z,98743.31
2023-03-05T12:49:46.596Z,98746.06
2023-03-05T12:52:25.010Z,98748.22
2023-03-05T12:55:11.163Z,98751.16
2023-03-05T12:57:45.878Z,98752.97
2023-03-05T13:00:50.038Z,98743.59
2023-03-05T13:03:30.777Z,98737.38
2023-03-05T13:06:06.696Z,98737.72
2023-03-05T13:08:40.483Z,98740.78
2023-03-05T13:11:20.514Z,98746.03
2023-03-05T13:13:53.564Z,98741.16
2023-03-05T13:16:29.241Z,98731.31
2023-03-05T13:19:02.484Z,98731.19
2023-03-05T13:21:35.491Z,98736.13
2023-03-05T13:24:19.740Z,98732.84
2023-03-05T13:26:52.874Z,98724.47
2023-03-05T13:29:30.943Z,98732.47
2023-03-05T13:32:24.287Z,98729.84
2023-03-05T13:35:02.703Z,98732.63
2023-03-05T13:37:39.980Z,98738.06
2023-03-05T13:40:28.445Z,98737.75
2023-03-05T13:43:20.786Z,98725.34
2023-03-05T13:45:57.991Z,98733.69
2023-03-05T13:48:29.883Z,98736.50
2023-03-05T13:51:07.013Z,98728.94
2023-03-05T13:53:39.292Z,98728.78
2023-03-05T13:56:17.832Z,98731.88
2023-03-05T13:58:54.119Z,98728.72
2023-03-05T14:01:39.704Z,98720.72
2023-03-05T14:04:14.514Z,98724.63
2023-03-05T14:06:55.348Z,98723.94
2023-03-05T14:09:27.026Z,98727.38
2023-03-05T14:12:05.739Z,98716.06
2023-03-05T14:14:38.807Z,98723.06
2023-03-05T14:17:42.915Z,98711.91
2023-03-05T14:20:23.132Z,98710.63
2023-03-05T14:22:58.271Z,98706.16
2023-03-05T14:25:39.779Z,98700.84
2023-03-05T14:28:17.795Z,98697.41
2023-03-05T14:30:53.478Z,98703.13
2023-03-05T14:33:30.316Z,98700.00
2023-03-05T14:36:03.908Z,98690.50
2023-03-05T14:38:41.667Z,98688.72
2023-03-05T14:41:32.588Z,98690.50
2023-03-05T14:44:18.970Z,98684.63
2023-03-05T14:46:53.453Z,98685.41
2023-03-05T14:49:25.671Z,98678.38
2023-03-05T14:51:57.655Z,98674.81
2023-03-05T14:54:38.189Z,98683.81
2023-03-05T14:57:18.912Z,98677.88
2023-03-05T14:59:51.064Z,98679.69
2023-03-05T15:02:26.024Z,98676.84
2023-03-05T15:04:57.862Z,98675.03
2023-03-05T15:07:32.321Z,98677.97
2023-03-05T15:10:05.685Z,98666.69
2023-03-05T15:12:44.342Z,98665.53
2023-03-05T15:15:18.503Z,98660.31
2023-03-05T15:17:57.483Z,98656.72
2023-03-05T15:20:49.467Z,98655.25
2023-03-05T15:23:24.080Z,98648.50
2023-03-05T15:25:55.882Z,98647.16
2023-03-05T15:28:27.749Z,98641.09
2023-03-05T15:31:00.412Z,98648.50
2023-03-05T15:33:36.336Z,98645.75
2023-03-05T15:36:09.871Z,98645.56
2023-03-05T15:38:44.945Z,98634.66
2023-03-05T15:41:17.745Z,98641.16
2023-03-05T15:43:57.135Z,98631.50
2023-03-05T15:46:29.038Z,98634.66
2023-03-05T15:49:05.793Z,98624.72
2023-03-05T15:51:37.526Z,98632.69
2023-03-05T15:54:10.122Z,98629.72
2023-03-05T15:56:42.577Z,98634.09
2023-03-05T15:59:17.587Z,98630.66
2023-03-05T16:01:54.164Z,98627.47
2023-03-05T16:04:26.003Z,98624.72
2023-03-05T16:07:02.978Z,98625.84
2023-03-05T16:09:39.634Z,98622.72
2023-03-05T16:12:18.944Z,98630.56
2023-03-05T16:14:52.106Z,98622.72
2023-03-05T16:17:24.637Z,98627.56
2023-03-05T16:19:56.596Z,98622.03
2023-03-05T16:22:28.505Z,98617.78
2023-03-05T16:25:01.574Z,98610.91
2023-03-05T16:27:36.964Z,98611.19
2023-03-05T16:30:14.107Z,98618.09
2023-03-05T16:32:46.083Z,98613.31
2023-03-05T16:35:18.312Z,98616.06
2023-03-05T16:37:50.426Z,98610.31
2023-03-05T16:40:23.073Z,98617.13
2023-03-05T16:42:57.917Z,98609.19
2023-03-05T16:45:29.873Z,98608.06
2023-03-05T16:48:02.225Z,98610.00
2023-03-05T16:50:34.151Z,98611.97
2023-03-05T16:53:06.040Z,98607.97
2023-03-05T16:55:38.038Z,98613.22
2023-03-05T16:58:12.771Z,98614.88
2023-03-05T17:00:44.699Z,98607.84
2023-03-05T17:03:16.614Z,98610.91
2023-03-05T17:05:49.164Z,98619.41
2023-03-05T17:08:24.417Z,98616.13
2023-03-05T17:10:59.479Z,98621.13
2023-03-05T17:13:31.398Z,98623.59
2023-03-05T17:16:05.805Z,98614.41
2023-03-05T17:18:41.948Z,98619.63
2023-03-05T17:21:14.527Z,98630.78
2023-03-05T17:23:46.776Z,98626.06
2023-03-05T17:26:22.363Z,98632.28
2023-03-05T17:28:54.600Z,98631.72
2023-03-05T17:31:28.809Z,98643.16
2023-03-05T17:34:00.897Z,98647.72
2023-03-05T17:36:33.382Z,98646.22
2023-03-05T17:39:06.144Z,98648.13
2023-03-05T17:41:40.723Z,98654.78
2023-03-05T17:44:13.076Z,98665.81
2023-03-05T17:46:50.688Z,98657.22
2023-03-05T17:49:25.698Z,98658.94
2023-03-05T17:51:58.225Z,98656.13
2023-03-05T17:54:30.113Z,98654.50
2023-03-05T17:57:04.273Z,98649.72
2023-03-05T17:59:36.547Z,98646.81
2023-03-05T18:02:09.617Z,98646.50
2023-03-05T18:04:42.478Z,98646.63
2023-03-05T18:07:14.587Z,98642.03
2023-03-05T18:09:49.101Z,98641.59
2023-03-05T18:12:21.040Z,98636.38
2023-03-05T18:14:53.114Z,98631.47
2023-03-05T18:17:27.812Z,98631.16
2023-03-05T18:20:01.054Z,98628.16
2023-03-05T18:22:36.097Z,98625.41
2023-03-05T18:25:13.480Z,98624.16
2023-03-05T18:27:48.243Z,98620.31
2023-03-05T18:30:20.182Z,98614.13
2023-03-05T18:32:52.151Z,98612.94
2023-03-05T18:35:24.985Z,98617.63
2023-03-05T18:38:00.570Z,98613.06
2023-03-05T18:40:35.906Z,98614.13
2023-03-05T18:43:09.866Z,98603.81
2023-03-05T18:45:42.871Z,98606.34
2023-03-05T18:48:15.002Z,98603.56
2023-03-05T18:50:50.313Z,98606.34
2023-03-05T18:53:23.066Z,98609.50
2023-03-05T18:55:55.322Z,98608.97
2023-03-05T18:58:27.195Z,98604.97
2023-03-05T19:01:00.004Z,98611.31
2023-03-05T19:03:35.651Z,98605.16
2023-03-05T19:06:07.942Z,98606.09
2023-03-05T19:08:40.202Z,98613.81
2023-03-05T19:11:21.138Z,98607.44
2023-03-05T19:13:57.136Z,98614.63
2023-03-05T19:16:36.823Z,98613.13
2023-03-05T19:19:25.474Z,98608.72
2023-03-05T19:21:59.829Z,98608.41
2023-03-05T19:24:36.676Z,98603.88
2023-03-05T19:27:15.813Z,98606.78
2023-03-05T19:29:50.794Z,98608.72
2023-03-05T19:32:23.665Z,98605.81
2023-03-05T19:34:57.551Z,98610.75
2023-03-05T19:37:31.232Z,98602.63
2023-03-05T19:40:05.275Z,98608.53
2023-03-05T19:42:39.196Z,98607.25
2023-03-05T19:45:11.340Z,98607.94
2023-03-05T19:47:43.271Z,98607.25
2023-03-05T19:50:16.285Z,98601.06
2023-03-05T19:52:48.718Z,98609.31
2023-03-05T19:55:20.976Z,98601.19
2023-03-05T19:57:55.536Z,98599.28
2023-03-05T20:00:28.452Z,98603.25
2023-03-05T20:03:00.413Z,98604.06
2023-03-05T20:05:36.659Z,98594.44
2023-03-05T20:08:08.567Z,98587.06
2023-03-05T20:10:41.925Z,98593.81
2023-03-05T20:13:13.649Z,98587.91
2023-03-05T20:15:45.618Z,98590.09
2023-03-05T20:18:17.445Z,98593.53
2023-03-05T20:20:58.908Z,98581.19
2023-03-05T20:23:32.119Z,98586.03
2023-03-05T20:26:05.856Z,98587.97
2023-03-05T20:28:37.757Z,98581.91
2023-03-05T20:31:12.955Z,98581.63
2023-03-05T20:33:47.862Z,98579.44
2023-03-05T20:36:22.247Z,98580.25
2023-03-05T20:38:55.124Z,98579.31
2023-03-05T20:41:27.094Z,98578.72
2023-03-05T20:44:00.060Z,98575.28
2023-03-05T20:46:36.116Z,98578.69
2023-03-05T20:49:31.314Z,98580.19
2023-03-05T20:52:03.630Z,98575.25
2023-03-05T20:54:35.523Z,98573.75
2023-03-05T20:57:07.305Z,98570.88
2023-03-05T20:59:40.207Z,98565.00
2023-03-05T21:02:12.113Z,98570.06
2023-03-05T21:04:44.363Z,98569.00
2023-03-05T21:07:16.634Z,98565.72
2023-03-05T21:09:48.392Z,98567.22
2023-03-05T21:12:21.294Z,98568.03
2023-03-05T21:14:53.117Z,98552.53
2023-03-05T21:17:24.864Z,98554.16
2023-03-05T21:19:56.613Z,98559.38
2023-03-05T21:22:28.689Z,98547.81
2023-03-05T21:25:23.527Z,98551.53
2023-03-05T21:28:00.981Z,98537.81
2023-03-05T21:30:54.628Z,98538.03
2023-03-05T21:33:29.821Z,98528.53
2023-03-05T21:36:01.807Z,98521.81
2023-03-05T21:38:34.740Z,98526.50
2023-03-05T21:41:06.777Z,98528.41
2023-03-05T21:43:38.647Z,98529.25
2023-03-05T21:46:11.336Z,98525.00
2023-03-05T21:48:43.233Z,98515.69
2023-03-05T21:52:11.664Z,98501.50
2023-03-05T21:54:43.556Z,98498.75
2023-03-05T21:57:19.580Z,98500.25
2023-03-05T21:59:51.356Z,98508.75
2023-03-05T22:02:24.038Z,98512.06
2023-03-05T22:04:55.876Z,98506.47
2023-03-05T22:07:30.277Z,98510.47
2023-03-05T22:10:02.308Z,98511.88
2023-03-05T22:13:11.771Z,98503.22
2023-03-05T22:15:46.383Z,98509.44
2023-03-05T22:18:33.669Z,98506.81
2023-03-05T22:21:05.741Z,98508.06
2023-03-05T22:23:37.832Z,98506.13
2023-03-05T22:26:09.896Z,98514.34
2023-03-05T22:28:42.693Z,98513.91
2023-03-05T22:31:24.476Z,98504.97
2023-03-05T22:33:59.425Z,98501.25
2023-03-05T22:36:56.469Z,98504.84
2023-03-05T22:39:28.287Z,98500.41
2023-03-05T22:42:12.662Z,98500.28
2023-03-05T22:44:46.532Z,98506.22
2023-03-05T22:47:18.358Z,98496.38
2023-03-05T22:49:50.207Z,98501.59
2023-03-05T22:52:21.983Z,98488.81
2023-03-05T22:54:55.978Z,98491.56
2023-03-05T22:57:27.903Z,98488.31
2023-03-05T22:59:59.751Z,98483.28
2023-03-05T23:02:31.986Z,98485.44
2023-03-05T23:05:03.914Z,98473.41
2023-03-05T23:07:40.010Z,98479.72
2023-03-05T23:10:17.295Z,98472.59
2023-03-05T23:12:52.219Z,98471.38
2023-03-05T23:15:36.252Z,98461.91
2023-03-05T23:18:08.775Z,98453.69
2023-03-05T23:20:41.121Z,98454.81
2023-03-05T23:23:15.830Z,98455.47
2023-03-05T23:25:50.849Z,98459.19
2023-03-05T23:28:23.174Z,98460.28
2023-03-05T23:30:55.021Z,98459.19
2023-03-05T23:33:26.895Z,98455.94
2023-03-05T23:36:00.659Z,98452.63
2023-03-05T23:38:33.202Z,98456.75
2023-03-05T23:41:09.505Z,98465.25
2023-03-05T23:43:41.358Z,98456.59
2023-03-05T23:46:13.167Z,98461.53
2023-03-05T23:48:47.772Z,98463.19
2023-03-05T23:51:19.601Z,98464.97
2023-03-05T23:53:51.544Z,98469.41
2023-03-05T23:56:24.471Z,98463.34
2023-03-05T23:59:00.488Z,98458.16
